Terminal Aerodrome Forecast
Issued by NWS

Home | Current Version | Previous Version | Text Only | Print | Product List | Glossary On
Versions: 1 2 3 4 5 6 7 8 9 10 11 12 13
000
FTUS45 KABQ 291740
TAFLVS
TAF
KLVS 291740Z 2918/3018 19018G24KT P6SM SCT100
     FM291900 19018G24KT P6SM VCTS SCT080CB BKN140
      TEMPO 2920/2923 VRB20G30KT -SHRA BKN080
     FM292300 15011KT P6SM VCSH BKN090
     FM300300 12008KT P6SM SCT120
     FM301200 16006KT P6SM BKN250=

USA.gov is the U.S. government's official web portal to all federal, state and local government web resources and services.